sensor_id;sensor_type;location;lat;lon;timestamp;temperature;humidity
20946;DHT22;10632;51.276;7.116;2022-08-30T00:01:01;17.80;99.90
20946;DHT22;10632;51.276;7.116;2022-08-30T00:03:30;17.80;99.90
20946;DHT22;10632;51.276;7.116;2022-08-30T00:06:13;17.80;99.90
20946;DHT22;10632;51.276;7.116;2022-08-30T00:08:44;17.80;99.90
20946;DHT22;10632;51.276;7.116;2022-08-30T00:11:17;17.80;99.90
20946;DHT22;10632;51.276;7.116;2022-08-30T00:13:48;17.80;99.90
20946;DHT22;10632;51.276;7.116;2022-08-30T00:16:19;17.70;99.90
20946;DHT22;10632;51.276;7.116;2022-08-30T00:18:47;17.70;99.90
20946;DHT22;10632;51.276;7.116;2022-08-30T00:21:16;17.70;99.90
20946;DHT22;10632;51.276;7.116;2022-08-30T00:23:43;17.60;99.90
20946;DHT22;10632;51.276;7.116;2022-08-30T00:26:10;17.60;99.90
20946;DHT22;10632;51.276;7.116;2022-08-30T00:28:37;17.60;99.90
20946;DHT22;10632;51.276;7.116;2022-08-30T00:31:05;17.60;99.90
20946;DHT22;10632;51.276;7.116;2022-08-30T00:33:34;17.50;99.90
20946;DHT22;10632;51.276;7.116;2022-08-30T00:36:02;17.50;99.90
20946;DHT22;10632;51.276;7.116;2022-08-30T00:38:31;17.50;99.90
20946;DHT22;10632;51.276;7.116;2022-08-30T00:40:58;17.40;99.90
20946;DHT22;10632;51.276;7.116;2022-08-30T00:43:28;17.40;99.90
20946;DHT22;10632;51.276;7.116;2022-08-30T00:45:55;17.40;99.90
20946;DHT22;10632;51.276;7.116;2022-08-30T00:48:23;17.40;99.90
20946;DHT22;10632;51.276;7.116;2022-08-30T00:50:53;17.40;99.90
20946;DHT22;10632;51.276;7.116;2022-08-30T00:53:25;17.40;99.90
20946;DHT22;10632;51.276;7.116;2022-08-30T00:55:58;17.30;99.90
20946;DHT22;10632;51.276;7.116;2022-08-30T00:58:30;17.30;99.90
20946;DHT22;10632;51.276;7.116;2022-08-30T01:00:58;17.30;99.90
20946;DHT22;10632;51.276;7.116;2022-08-30T01:03:27;17.20;99.90
20946;DHT22;10632;51.276;7.116;2022-08-30T01:05:56;17.20;99.90
20946;DHT22;10632;51.276;7.116;2022-08-30T01:08:24;17.20;99.90
20946;DHT22;10632;51.276;7.116;2022-08-30T01:10:52;17.20;99.90
20946;DHT22;10632;51.276;7.116;2022-08-30T01:13:23;17.20;99.90
20946;DHT22;10632;51.276;7.116;2022-08-30T01:15:52;17.20;99.90
20946;DHT22;10632;51.276;7.116;2022-08-30T01:18:19;17.10;99.90
20946;DHT22;10632;51.276;7.116;2022-08-30T01:20:51;17.10;99.90
20946;DHT22;10632;51.276;7.116;2022-08-30T01:23:24;17.10;99.90
20946;DHT22;10632;51.276;7.116;2022-08-30T01:25:53;17.00;99.90
20946;DHT22;10632;51.276;7.116;2022-08-30T01:28:23;17.00;99.90
20946;DHT22;10632;51.276;7.116;2022-08-30T01:30:57;17.10;99.90
20946;DHT22;10632;51.276;7.116;2022-08-30T01:33:24;17.00;99.90
20946;DHT22;10632;51.276;7.116;2022-08-30T01:35:56;17.00;99.90
20946;DHT22;10632;51.276;7.116;2022-08-30T01:38:35;17.00;99.90
20946;DHT22;10632;51.276;7.116;2022-08-30T01:41:11;17.00;99.90
20946;DHT22;10632;51.276;7.116;2022-08-30T01:43:42;17.00;99.90
20946;DHT22;10632;51.276;7.116;2022-08-30T01:46:09;17.00;99.90
20946;DHT22;10632;51.276;7.116;2022-08-30T01:48:37;17.00;99.90
20946;DHT22;10632;51.276;7.116;2022-08-30T01:51:09;16.90;99.90
20946;DHT22;10632;51.276;7.116;2022-08-30T01:53:48;17.00;99.90
20946;DHT22;10632;51.276;7.116;2022-08-30T01:56:15;16.90;99.90
20946;DHT22;10632;51.276;7.116;2022-08-30T01:58:45;16.90;99.90
20946;DHT22;10632;51.276;7.116;2022-08-30T02:01:14;16.90;99.90
20946;DHT22;10632;51.276;7.116;2022-08-30T02:03:45;16.90;99.90
20946;DHT22;10632;51.276;7.116;2022-08-30T02:06:15;16.90;99.90
20946;DHT22;10632;51.276;7.116;2022-08-30T02:08:47;16.90;99.90
20946;DHT22;10632;51.276;7.116;2022-08-30T02:11:15;16.80;99.90
20946;DHT22;10632;51.276;7.116;2022-08-30T02:13:44;16.90;99.90
20946;DHT22;10632;51.276;7.116;2022-08-30T02:16:15;16.90;99.90
20946;DHT22;10632;51.276;7.116;2022-08-30T02:18:42;16.90;99.90
20946;DHT22;10632;51.276;7.116;2022-08-30T02:21:13;16.90;99.90
20946;DHT22;10632;51.276;7.116;2022-08-30T02:23:41;16.80;99.90
20946;DHT22;10632;51.276;7.116;2022-08-30T02:26:15;16.80;99.90
20946;DHT22;10632;51.276;7.116;2022-08-30T02:28:45;16.90;99.90
20946;DHT22;10632;51.276;7.116;2022-08-30T02:31:13;16.80;99.90
20946;DHT22;10632;51.276;7.116;2022-08-30T02:33:40;16.80;99.90
20946;DHT22;10632;51.276;7.116;2022-08-30T02:36:12;16.80;99.90
20946;DHT22;10632;51.276;7.116;2022-08-30T02:38:42;16.80;99.90
20946;DHT22;10632;51.276;7.116;2022-08-30T02:41:09;16.70;99.90
20946;DHT22;10632;51.276;7.116;2022-08-30T02:43:38;16.80;99.90
20946;DHT22;10632;51.276;7.116;2022-08-30T02:46:08;16.70;99.90
20946;DHT22;10632;51.276;7.116;2022-08-30T02:48:35;16.70;99.90
20946;DHT22;10632;51.276;7.116;2022-08-30T02:51:10;16.70;99.90
20946;DHT22;10632;51.276;7.116;2022-08-30T02:53:46;16.70;99.90
20946;DHT22;10632;51.276;7.116;2022-08-30T02:56:18;16.70;99.90
20946;DHT22;10632;51.276;7.116;2022-08-30T02:58:46;16.70;99.90
20946;DHT22;10632;51.276;7.116;2022-08-30T03:01:14;16.70;99.90
20946;DHT22;10632;51.276;7.116;2022-08-30T03:03:45;16.70;99.90
20946;DHT22;10632;51.276;7.116;2022-08-30T03:06:12;16.70;99.90
20946;DHT22;10632;51.276;7.116;2022-08-30T03:08:46;16.70;99.90
20946;DHT22;10632;51.276;7.116;2022-08-30T03:11:16;16.70;99.90
20946;DHT22;10632;51.276;7.116;2022-08-30T03:13:48;16.70;99.90
20946;DHT22;10632;51.276;7.116;2022-08-30T03:16:18;16.70;99.90
20946;DHT22;10632;51.276;7.116;2022-08-30T03:18:47;16.70;99.90
20946;DHT22;10632;51.276;7.116;2022-08-30T03:21:20;16.60;99.90
20946;DHT22;10632;51.276;7.116;2022-08-30T03:23:50;16.70;99.90
20946;DHT22;10632;51.276;7.116;2022-08-30T03:26:28;16.60;99.90
20946;DHT22;10632;51.276;7.116;2022-08-30T03:29:04;16.60;99.90
20946;DHT22;10632;51.276;7.116;2022-08-30T03:31:33;16.60;99.90
20946;DHT22;10632;51.276;7.116;2022-08-30T03:34:00;16.60;99.90
20946;DHT22;10632;51.276;7.116;2022-08-30T03:36:35;16.50;99.90
20946;DHT22;10632;51.276;7.116;2022-08-30T03:39:05;16.50;99.90
20946;DHT22;10632;51.276;7.116;2022-08-30T03:41:35;16.50;99.90
20946;DHT22;10632;51.276;7.116;2022-08-30T03:44:04;16.50;99.90
20946;DHT22;10632;51.276;7.116;2022-08-30T03:46:35;16.50;99.90
20946;DHT22;10632;51.276;7.116;2022-08-30T03:49:07;16.40;99.90
20946;DHT22;10632;51.276;7.116;2022-08-30T03:51:40;16.50;99.90
20946;DHT22;10632;51.276;7.116;2022-08-30T03:54:11;16.40;99.90
20946;DHT22;10632;51.276;7.116;2022-08-30T03:56:40;16.40;99.90
20946;DHT22;10632;51.276;7.116;2022-08-30T03:59:16;16.40;99.90
20946;DHT22;10632;51.276;7.116;2022-08-30T04:01:44;16.30;99.90
20946;DHT22;10632;51.276;7.116;2022-08-30T04:04:21;16.40;99.90
20946;DHT22;10632;51.276;7.116;2022-08-30T04:06:50;16.30;99.90
20946;DHT22;10632;51.276;7.116;2022-08-30T04:09:25;16.30;99.90
20946;DHT22;10632;51.276;7.116;2022-08-30T04:11:52;16.30;99.90
20946;DHT22;10632;51.276;7.116;2022-08-30T04:14:25;16.30;99.90
20946;DHT22;10632;51.276;7.116;2022-08-30T04:16:54;16.30;99.90
20946;DHT22;10632;51.276;7.116;2022-08-30T04:19:24;16.30;99.90
20946;DHT22;10632;51.276;7.116;2022-08-30T04:21:55;16.20;99.90
20946;DHT22;10632;51.276;7.116;2022-08-30T04:24:26;16.20;99.90
20946;DHT22;10632;51.276;7.116;2022-08-30T04:26:57;16.20;99.90
20946;DHT22;10632;51.276;7.116;2022-08-30T04:29:27;16.20;99.90
20946;DHT22;10632;51.276;7.116;2022-08-30T04:31:55;16.20;99.90
20946;DHT22;10632;51.276;7.116;2022-08-30T04:34:23;16.20;99.90
20946;DHT22;10632;51.276;7.116;2022-08-30T04:37:01;16.20;99.90
20946;DHT22;10632;51.276;7.116;2022-08-30T04:39:36;16.20;99.90
20946;DHT22;10632;51.276;7.116;2022-08-30T04:42:04;16.10;99.90
20946;DHT22;10632;51.276;7.116;2022-08-30T04:44:33;16.10;99.90
20946;DHT22;10632;51.276;7.116;2022-08-30T04:47:02;16.10;99.90
20946;DHT22;10632;51.276;7.116;2022-08-30T04:49:29;16.00;99.90
20946;DHT22;10632;51.276;7.116;2022-08-30T04:51:58;16.00;99.90
20946;DHT22;10632;51.276;7.116;2022-08-30T04:54:37;16.00;99.90
20946;DHT22;10632;51.276;7.116;2022-08-30T04:57:10;16.00;99.90
20946;DHT22;10632;51.276;7.116;2022-08-30T04:59:38;16.00;99.90
20946;DHT22;10632;51.276;7.116;2022-08-30T05:02:10;15.90;99.90
20946;DHT22;10632;51.276;7.116;2022-08-30T05:04:40;15.90;99.90
20946;DHT22;10632;51.276;7.116;2022-08-30T05:07:33;15.90;99.90
20946;DHT22;10632;51.276;7.116;2022-08-30T05:10:00;15.90;99.90
20946;DHT22;10632;51.276;7.116;2022-08-30T05:12:30;15.90;99.90
20946;DHT22;10632;51.276;7.116;2022-08-30T05:15:04;15.90;99.90
20946;DHT22;10632;51.276;7.116;2022-08-30T05:17:35;15.90;99.90
20946;DHT22;10632;51.276;7.116;2022-08-30T05:20:11;15.90;99.90
20946;DHT22;10632;51.276;7.116;2022-08-30T05:22:39;15.90;99.90
20946;DHT22;10632;51.276;7.116;2022-08-30T05:25:22;15.90;99.90
20946;DHT22;10632;51.276;7.116;2022-08-30T05:28:03;15.90;99.90
20946;DHT22;10632;51.276;7.116;2022-08-30T05:30:35;15.90;99.90
20946;DHT22;10632;51.276;7.116;2022-08-30T05:33:03;15.90;99.90
20946;DHT22;10632;51.276;7.116;2022-08-30T05:35:30;15.90;99.90
20946;DHT22;10632;51.276;7.116;2022-08-30T05:37:59;16.00;99.90
20946;DHT22;10632;51.276;7.116;2022-08-30T05:40:26;16.00;99.90
20946;DHT22;10632;51.276;7.116;2022-08-30T05:42:53;16.00;99.90
20946;DHT22;10632;51.276;7.116;2022-08-30T05:45:20;16.00;99.90
20946;DHT22;10632;51.276;7.116;2022-08-30T05:47:48;16.10;99.90
20946;DHT22;10632;51.276;7.116;2022-08-30T05:50:21;16.10;99.90
20946;DHT22;10632;51.276;7.116;2022-08-30T05:52:50;16.10;99.90
20946;DHT22;10632;51.276;7.116;2022-08-30T05:55:21;16.10;99.90
20946;DHT22;10632;51.276;7.116;2022-08-30T05:57:48;16.20;99.90
20946;DHT22;10632;51.276;7.116;2022-08-30T06:00:21;16.20;99.90
20946;DHT22;10632;51.276;7.116;2022-08-30T06:02:56;16.20;99.90
20946;DHT22;10632;51.276;7.116;2022-08-30T06:05:24;16.20;99.90
20946;DHT22;10632;51.276;7.116;2022-08-30T06:07:55;16.20;99.90
20946;DHT22;10632;51.276;7.116;2022-08-30T06:10:31;16.20;99.90
20946;DHT22;10632;51.276;7.116;2022-08-30T06:12:58;16.20;99.90
20946;DHT22;10632;51.276;7.116;2022-08-30T06:15:37;16.30;99.90
20946;DHT22;10632;51.276;7.116;2022-08-30T06:18:06;16.30;99.90
20946;DHT22;10632;51.276;7.116;2022-08-30T06:20:41;16.30;99.90
20946;DHT22;10632;51.276;7.116;2022-08-30T06:23:08;16.30;99.90
20946;DHT22;10632;51.276;7.116;2022-08-30T06:25:38;16.30;99.90
20946;DHT22;10632;51.276;7.116;2022-08-30T06:28:05;16.40;99.90
20946;DHT22;10632;51.276;7.116;2022-08-30T06:30:33;16.40;99.90
20946;DHT22;10632;51.276;7.116;2022-08-30T06:33:03;16.40;99.90
20946;DHT22;10632;51.276;7.116;2022-08-30T06:35:37;16.40;99.90
20946;DHT22;10632;51.276;7.116;2022-08-30T06:38:05;16.50;99.90
20946;DHT22;10632;51.276;7.116;2022-08-30T06:40:37;16.50;99.90
20946;DHT22;10632;51.276;7.116;2022-08-30T06:43:08;16.60;99.90
20946;DHT22;10632;51.276;7.116;2022-08-30T06:45:37;16.60;99.90
20946;DHT22;10632;51.276;7.116;2022-08-30T06:48:07;16.70;99.90
20946;DHT22;10632;51.276;7.116;2022-08-30T06:50:38;16.70;99.90
20946;DHT22;10632;51.276;7.116;2022-08-30T06:53:20;16.80;99.90
20946;DHT22;10632;51.276;7.116;2022-08-30T06:55:59;16.80;99.90
20946;DHT22;10632;51.276;7.116;2022-08-30T06:58:43;16.90;99.90
20946;DHT22;10632;51.276;7.116;2022-08-30T07:01:23;17.00;99.90
20946;DHT22;10632;51.276;7.116;2022-08-30T07:03:51;17.10;99.90
20946;DHT22;10632;51.276;7.116;2022-08-30T07:06:23;17.10;99.90
20946;DHT22;10632;51.276;7.116;2022-08-30T07:08:50;17.20;99.90
20946;DHT22;10632;51.276;7.116;2022-08-30T07:11:27;17.20;99.90
20946;DHT22;10632;51.276;7.116;2022-08-30T07:13:54;17.30;99.90
20946;DHT22;10632;51.276;7.116;2022-08-30T07:16:29;17.40;99.90
20946;DHT22;10632;51.276;7.116;2022-08-30T07:18:57;17.50;99.90
20946;DHT22;10632;51.276;7.116;2022-08-30T07:21:31;17.50;99.90
20946;DHT22;10632;51.276;7.116;2022-08-30T07:24:01;17.60;99.90
20946;DHT22;10632;51.276;7.116;2022-08-30T07:26:31;17.70;99.90
20946;DHT22;10632;51.276;7.116;2022-08-30T07:28:59;17.70;99.90
20946;DHT22;10632;51.276;7.116;2022-08-30T07:31:27;17.80;99.90
20946;DHT22;10632;51.276;7.116;2022-08-30T07:33:57;17.90;99.90
20946;DHT22;10632;51.276;7.116;2022-08-30T07:36:39;18.10;99.90
20946;DHT22;10632;51.276;7.116;2022-08-30T07:39:09;18.20;99.90
20946;DHT22;10632;51.276;7.116;2022-08-30T07:41:36;18.30;99.90
20946;DHT22;10632;51.276;7.116;2022-08-30T07:44:12;18.40;99.90
20946;DHT22;10632;51.276;7.116;2022-08-30T07:46:39;18.50;99.90
20946;DHT22;10632;51.276;7.116;2022-08-30T07:49:09;18.60;99.90
20946;DHT22;10632;51.276;7.116;2022-08-30T07:51:39;18.70;99.90
20946;DHT22;10632;51.276;7.116;2022-08-30T07:54:06;18.70;99.90
20946;DHT22;10632;51.276;7.116;2022-08-30T07:56:33;18.80;99.90
20946;DHT22;10632;51.276;7.116;2022-08-30T07:59:00;18.90;99.90
20946;DHT22;10632;51.276;7.116;2022-08-30T08:01:27;19.00;99.90
20946;DHT22;10632;51.276;7.116;2022-08-30T08:03:55;19.10;99.90
20946;DHT22;10632;51.276;7.116;2022-08-30T08:06:25;19.20;99.90
20946;DHT22;10632;51.276;7.116;2022-08-30T08:08:53;19.30;99.90
20946;DHT22;10632;51.276;7.116;2022-08-30T08:11:23;19.40;99.90
20946;DHT22;10632;51.276;7.116;2022-08-30T08:13:52;19.40;99.90
20946;DHT22;10632;51.276;7.116;2022-08-30T08:16:19;19.50;99.90
20946;DHT22;10632;51.276;7.116;2022-08-30T08:18:46;19.50;99.90
20946;DHT22;10632;51.276;7.116;2022-08-30T08:21:16;19.60;99.90
20946;DHT22;10632;51.276;7.116;2022-08-30T08:23:44;19.60;99.90
20946;DHT22;10632;51.276;7.116;2022-08-30T08:26:13;19.60;99.90
20946;DHT22;10632;51.276;7.116;2022-08-30T08:28:40;19.60;99.90
20946;DHT22;10632;51.276;7.116;2022-08-30T08:31:13;19.70;99.90
20946;DHT22;10632;51.276;7.116;2022-08-30T08:33:40;19.70;99.90
20946;DHT22;10632;51.276;7.116;2022-08-30T08:36:07;19.80;99.90
20946;DHT22;10632;51.276;7.116;2022-08-30T08:38:34;19.90;99.90
20946;DHT22;10632;51.276;7.116;2022-08-30T08:41:05;19.90;99.90
20946;DHT22;10632;51.276;7.116;2022-08-30T08:43:37;19.90;99.90
20946;DHT22;10632;51.276;7.116;2022-08-30T08:46:09;20.00;99.90
20946;DHT22;10632;51.276;7.116;2022-08-30T08:48:42;20.10;99.90
20946;DHT22;10632;51.276;7.116;2022-08-30T08:51:14;20.10;99.90
20946;DHT22;10632;51.276;7.116;2022-08-30T08:54:11;20.20;99.90
20946;DHT22;10632;51.276;7.116;2022-08-30T08:56:39;20.30;99.90
20946;DHT22;10632;51.276;7.116;2022-08-30T08:59:08;20.40;99.90
20946;DHT22;10632;51.276;7.116;2022-08-30T09:01:42;20.50;99.90
20946;DHT22;10632;51.276;7.116;2022-08-30T09:04:15;20.60;99.90
20946;DHT22;10632;51.276;7.116;2022-08-30T09:06:49;20.60;99.90
20946;DHT22;10632;51.276;7.116;2022-08-30T09:09:20;20.60;99.90
20946;DHT22;10632;51.276;7.116;2022-08-30T09:11:49;20.70;99.90
20946;DHT22;10632;51.276;7.116;2022-08-30T09:14:20;20.80;99.90
20946;DHT22;10632;51.276;7.116;2022-08-30T09:16:57;20.80;99.90
20946;DHT22;10632;51.276;7.116;2022-08-30T09:19:36;20.80;99.90
20946;DHT22;10632;51.276;7.116;2022-08-30T09:22:18;20.80;99.90
20946;DHT22;10632;51.276;7.116;2022-08-30T09:24:49;20.90;99.90
20946;DHT22;10632;51.276;7.116;2022-08-30T09:27:27;20.90;99.90
20946;DHT22;10632;51.276;7.116;2022-08-30T09:30:03;21.00;99.90
20946;DHT22;10632;51.276;7.116;2022-08-30T09:32:35;21.00;99.90
20946;DHT22;10632;51.276;7.116;2022-08-30T09:35:05;21.00;99.90
20946;DHT22;10632;51.276;7.116;2022-08-30T09:37:37;21.00;99.90
20946;DHT22;10632;51.276;7.116;2022-08-30T09:40:09;21.10;99.90
20946;DHT22;10632;51.276;7.116;2022-08-30T09:42:37;21.20;99.90
20946;DHT22;10632;51.276;7.116;2022-08-30T09:45:17;21.30;99.90
20946;DHT22;10632;51.276;7.116;2022-08-30T09:47:45;21.50;99.90
20946;DHT22;10632;51.276;7.116;2022-08-30T09:50:16;21.60;99.90
20946;DHT22;10632;51.276;7.116;2022-08-30T09:52:58;21.70;99.90
20946;DHT22;10632;51.276;7.116;2022-08-30T09:55:36;21.70;99.90
20946;DHT22;10632;51.276;7.116;2022-08-30T09:58:09;21.80;99.90
20946;DHT22;10632;51.276;7.116;2022-08-30T10:00:46;21.90;99.90
20946;DHT22;10632;51.276;7.116;2022-08-30T10:03:26;21.80;99.90
20946;DHT22;10632;51.276;7.116;2022-08-30T10:06:02;21.80;99.90
20946;DHT22;10632;51.276;7.116;2022-08-30T10:08:41;21.80;99.90
20946;DHT22;10632;51.276;7.116;2022-08-30T10:11:15;21.80;99.90
20946;DHT22;10632;51.276;7.116;2022-08-30T10:13:56;21.80;99.90
20946;DHT22;10632;51.276;7.116;2022-08-30T10:16:34;21.80;99.90
20946;DHT22;10632;51.276;7.116;2022-08-30T10:19:15;21.80;99.90
20946;DHT22;10632;51.276;7.116;2022-08-30T10:21:46;21.80;99.90
20946;DHT22;10632;51.276;7.116;2022-08-30T10:24:17;21.80;99.90
20946;DHT22;10632;51.276;7.116;2022-08-30T10:26:49;21.80;99.90
20946;DHT22;10632;51.276;7.116;2022-08-30T10:29:22;21.80;99.90
20946;DHT22;10632;51.276;7.116;2022-08-30T10:31:55;22.00;99.90
20946;DHT22;10632;51.276;7.116;2022-08-30T10:34:28;22.20;99.90
20946;DHT22;10632;51.276;7.116;2022-08-30T10:37:08;22.30;99.90
20946;DHT22;10632;51.276;7.116;2022-08-30T10:39:41;22.40;99.90
20946;DHT22;10632;51.276;7.116;2022-08-30T10:42:14;22.40;99.90
20946;DHT22;10632;51.276;7.116;2022-08-30T10:44:45;22.50;99.90
20946;DHT22;10632;51.276;7.116;2022-08-30T10:47:22;22.70;99.90
20946;DHT22;10632;51.276;7.116;2022-08-30T10:49:56;22.70;99.90
20946;DHT22;10632;51.276;7.116;2022-08-30T10:52:32;22.80;99.90
20946;DHT22;10632;51.276;7.116;2022-08-30T10:55:06;22.90;99.90
20946;DHT22;10632;51.276;7.116;2022-08-30T10:57:38;23.00;99.90
20946;DHT22;10632;51.276;7.116;2022-08-30T11:00:07;23.20;99.90
20946;DHT22;10632;51.276;7.116;2022-08-30T11:03:21;23.30;99.90
20946;DHT22;10632;51.276;7.116;2022-08-30T11:06:13;23.50;99.90
20946;DHT22;10632;51.276;7.116;2022-08-30T11:14:44;24.00;99.90
20946;DHT22;10632;51.276;7.116;2022-08-30T11:17:26;23.90;99.90
20946;DHT22;10632;51.276;7.116;2022-08-30T11:19:59;23.70;99.90
20946;DHT22;10632;51.276;7.116;2022-08-30T11:22:31;23.60;99.90
20946;DHT22;10632;51.276;7.116;2022-08-30T11:25:02;23.60;99.90
20946;DHT22;10632;51.276;7.116;2022-08-30T11:27:42;23.70;99.90
20946;DHT22;10632;51.276;7.116;2022-08-30T11:30:47;23.80;99.90
20946;DHT22;10632;51.276;7.116;2022-08-30T11:33:30;23.90;99.90
20946;DHT22;10632;51.276;7.116;2022-08-30T11:36:07;24.10;99.90
20946;DHT22;10632;51.276;7.116;2022-08-30T11:38:58;24.20;99.90
20946;DHT22;10632;51.276;7.116;2022-08-30T11:41:32;24.40;99.90
20946;DHT22;10632;51.276;7.116;2022-08-30T11:44:27;24.60;99.90
20946;DHT22;10632;51.276;7.116;2022-08-30T11:46:56;24.60;99.90
20946;DHT22;10632;51.276;7.116;2022-08-30T11:49:51;24.80;99.90
20946;DHT22;10632;51.276;7.116;2022-08-30T11:52:40;25.00;99.80
20946;DHT22;10632;51.276;7.116;2022-08-30T11:55:40;25.00;99.30
20946;DHT22;10632;51.276;7.116;2022-08-30T11:58:26;24.90;99.30
20946;DHT22;10632;51.276;7.116;2022-08-30T12:01:15;25.00;98.50
20946;DHT22;10632;51.276;7.116;2022-08-30T12:03:43;25.00;98.40
20946;DHT22;10632;51.276;7.116;2022-08-30T12:06:11;25.00;97.30
20946;DHT22;10632;51.276;7.116;2022-08-30T12:09:00;25.10;96.60
20946;DHT22;10632;51.276;7.116;2022-08-30T12:12:00;25.20;96.50
20946;DHT22;10632;51.276;7.116;2022-08-30T12:14:51;25.20;96.30
20946;DHT22;10632;51.276;7.116;2022-08-30T12:17:29;25.10;96.10
20946;DHT22;10632;51.276;7.116;2022-08-30T12:20:22;25.00;96.70
20946;DHT22;10632;51.276;7.116;2022-08-30T12:22:50;25.10;96.90
20946;DHT22;10632;51.276;7.116;2022-08-30T12:25:31;25.20;97.20
20946;DHT22;10632;51.276;7.116;2022-08-30T12:28:15;25.20;97.10
20946;DHT22;10632;51.276;7.116;2022-08-30T12:30:43;25.30;96.80
20946;DHT22;10632;51.276;7.116;2022-08-30T12:33:11;25.50;96.40
20946;DHT22;10632;51.276;7.116;2022-08-30T12:35:40;25.80;96.40
20946;DHT22;10632;51.276;7.116;2022-08-30T12:38:17;26.00;95.30
20946;DHT22;10632;51.276;7.116;2022-08-30T12:40:51;26.10;95.40
20946;DHT22;10632;51.276;7.116;2022-08-30T12:43:28;26.20;95.30
20946;DHT22;10632;51.276;7.116;2022-08-30T12:46:02;26.00;95.80
20946;DHT22;10632;51.276;7.116;2022-08-30T12:48:35;26.00;96.10
20946;DHT22;10632;51.276;7.116;2022-08-30T12:51:05;25.90;96.40
20946;DHT22;10632;51.276;7.116;2022-08-30T12:53:33;25.80;96.40
20946;DHT22;10632;51.276;7.116;2022-08-30T12:56:07;25.70;96.20
20946;DHT22;10632;51.276;7.116;2022-08-30T12:58:37;25.60;96.50
20946;DHT22;10632;51.276;7.116;2022-08-30T13:01:14;25.70;96.90
20946;DHT22;10632;51.276;7.116;2022-08-30T13:03:52;25.80;96.70
20946;DHT22;10632;51.276;7.116;2022-08-30T13:06:35;25.90;96.60
20946;DHT22;10632;51.276;7.116;2022-08-30T13:09:03;25.90;96.70
20946;DHT22;10632;51.276;7.116;2022-08-30T13:11:40;25.80;96.70
20946;DHT22;10632;51.276;7.116;2022-08-30T13:14:36;25.70;96.50
20946;DHT22;10632;51.276;7.116;2022-08-30T13:17:22;25.70;96.50
20946;DHT22;10632;51.276;7.116;2022-08-30T13:19:59;25.70;96.50
20946;DHT22;10632;51.276;7.116;2022-08-30T13:22:33;25.50;96.70
20946;DHT22;10632;51.276;7.116;2022-08-30T13:25:00;25.40;96.90
20946;DHT22;10632;51.276;7.116;2022-08-30T13:27:33;25.20;96.80
20946;DHT22;10632;51.276;7.116;2022-08-30T13:30:06;25.10;96.90
20946;DHT22;10632;51.276;7.116;2022-08-30T13:32:38;25.10;96.80
20946;DHT22;10632;51.276;7.116;2022-08-30T13:35:09;25.00;96.80
20946;DHT22;10632;51.276;7.116;2022-08-30T13:37:40;25.00;97.20
20946;DHT22;10632;51.276;7.116;2022-08-30T13:40:09;25.10;96.50
20946;DHT22;10632;51.276;7.116;2022-08-30T13:42:38;25.20;96.60
20946;DHT22;10632;51.276;7.116;2022-08-30T13:45:10;25.20;96.50
20946;DHT22;10632;51.276;7.116;2022-08-30T13:47:38;25.20;96.40
20946;DHT22;10632;51.276;7.116;2022-08-30T13:50:05;25.20;96.40
20946;DHT22;10632;51.276;7.116;2022-08-30T13:52:32;25.20;96.10
20946;DHT22;10632;51.276;7.116;2022-08-30T13:54:59;25.20;96.10
20946;DHT22;10632;51.276;7.116;2022-08-30T13:57:28;25.20;95.80
20946;DHT22;10632;51.276;7.116;2022-08-30T13:59:57;25.20;96.00
20946;DHT22;10632;51.276;7.116;2022-08-30T14:02:27;25.10;96.10
20946;DHT22;10632;51.276;7.116;2022-08-30T14:04:54;25.20;96.00
20946;DHT22;10632;51.276;7.116;2022-08-30T14:07:22;25.20;96.00
20946;DHT22;10632;51.276;7.116;2022-08-30T14:09:54;25.20;95.70
20946;DHT22;10632;51.276;7.116;2022-08-30T14:12:25;25.20;95.70
20946;DHT22;10632;51.276;7.116;2022-08-30T14:15:00;25.20;95.60
20946;DHT22;10632;51.276;7.116;2022-08-30T14:17:28;25.20;95.70
20946;DHT22;10632;51.276;7.116;2022-08-30T14:20:00;25.10;95.90
20946;DHT22;10632;51.276;7.116;2022-08-30T14:22:28;25.00;95.90
20946;DHT22;10632;51.276;7.116;2022-08-30T14:24:58;25.00;95.70
20946;DHT22;10632;51.276;7.116;2022-08-30T14:27:26;24.80;96.00
20946;DHT22;10632;51.276;7.116;2022-08-30T14:29:53;24.80;95.90
20946;DHT22;10632;51.276;7.116;2022-08-30T14:32:21;24.80;96.20
20946;DHT22;10632;51.276;7.116;2022-08-30T14:34:49;24.80;96.30
20946;DHT22;10632;51.276;7.116;2022-08-30T14:37:16;24.80;95.70
20946;DHT22;10632;51.276;7.116;2022-08-30T14:39:47;24.80;95.70
20946;DHT22;10632;51.276;7.116;2022-08-30T14:42:14;24.70;95.60
20946;DHT22;10632;51.276;7.116;2022-08-30T14:44:44;24.70;95.90
20946;DHT22;10632;51.276;7.116;2022-08-30T14:47:20;24.70;95.90
20946;DHT22;10632;51.276;7.116;2022-08-30T14:49:50;24.70;95.90
20946;DHT22;10632;51.276;7.116;2022-08-30T14:52:18;24.80;95.60
20946;DHT22;10632;51.276;7.116;2022-08-30T14:54:45;24.80;95.80
20946;DHT22;10632;51.276;7.116;2022-08-30T14:57:13;24.90;95.50
20946;DHT22;10632;51.276;7.116;2022-08-30T14:59:40;24.90;95.60
20946;DHT22;10632;51.276;7.116;2022-08-30T15:02:16;25.00;95.30
20946;DHT22;10632;51.276;7.116;2022-08-30T15:04:49;24.90;95.40
20946;DHT22;10632;51.276;7.116;2022-08-30T15:07:16;24.90;95.50
20946;DHT22;10632;51.276;7.116;2022-08-30T15:09:44;24.90;95.20
20946;DHT22;10632;51.276;7.116;2022-08-30T15:12:17;24.80;95.40
20946;DHT22;10632;51.276;7.116;2022-08-30T15:14:49;24.80;95.60
20946;DHT22;10632;51.276;7.116;2022-08-30T15:17:20;24.80;95.60
20946;DHT22;10632;51.276;7.116;2022-08-30T15:19:49;24.70;95.30
20946;DHT22;10632;51.276;7.116;2022-08-30T15:22:16;24.70;95.40
20946;DHT22;10632;51.276;7.116;2022-08-30T15:24:43;24.70;95.30
20946;DHT22;10632;51.276;7.116;2022-08-30T15:27:15;24.60;95.20
20946;DHT22;10632;51.276;7.116;2022-08-30T15:29:46;24.60;95.50
20946;DHT22;10632;51.276;7.116;2022-08-30T15:32:12;24.60;95.40
20946;DHT22;10632;51.276;7.116;2022-08-30T15:34:43;24.70;95.60
20946;DHT22;10632;51.276;7.116;2022-08-30T15:37:14;24.60;95.30
20946;DHT22;10632;51.276;7.116;2022-08-30T15:39:46;24.70;95.30
20946;DHT22;10632;51.276;7.116;2022-08-30T15:42:22;24.70;95.50
20946;DHT22;10632;51.276;7.116;2022-08-30T15:44:50;24.60;95.20
20946;DHT22;10632;51.276;7.116;2022-08-30T15:47:21;24.60;95.40
20946;DHT22;10632;51.276;7.116;2022-08-30T15:49:53;24.60;95.30
20946;DHT22;10632;51.276;7.116;2022-08-30T15:52:23;24.50;95.50
20946;DHT22;10632;51.276;7.116;2022-08-30T15:54:50;24.50;95.70
20946;DHT22;10632;51.276;7.116;2022-08-30T15:57:17;24.40;95.60
20946;DHT22;10632;51.276;7.116;2022-08-30T15:59:47;24.40;95.70
20946;DHT22;10632;51.276;7.116;2022-08-30T16:02:14;24.30;95.70
20946;DHT22;10632;51.276;7.116;2022-08-30T16:04:42;24.30;95.80
20946;DHT22;10632;51.276;7.116;2022-08-30T16:07:10;24.30;95.80